SFR632 FAOR-FAPE
Flight info
| Callsign | SFR632 |
|---|---|
| Flight time | 1h 17m |
| Altitude | 34000 |
| Route | OVALA UZ18 NEVEN UQ8 ALKAT DCT PEV |
| Aircraft | B738/M-SDE2E3FGHIRWXY/LB1 |
Departure
| Time | 2026-04-15 13:18 |
|---|---|
| Airport | O.R. Tambo International Airport (FAOR) |
Arrival
| Time | 2026-04-15 14:35 |
|---|---|
| Airport | Chief Dawid Stuurman International Airport (FAPE) |
| Time | Latitude | Longitude | Altitude | Speed | Heading |
|---|---|---|---|---|---|
| 2026-04-15 12:18 | -26.13670 | 28.22943 | 5550 ft | 0 kts | 6° |
| 2026-04-15 13:00 | -26.13674 | 28.22942 | 5546 ft | 0 kts | 6° |
| 2026-04-15 13:03 | -26.13684 | 28.22941 | 5551 ft | 3 kts | 6° |
| 2026-04-15 13:03 | -26.13699 | 28.22939 | 5549 ft | 2 kts | 6° |
| 2026-04-15 13:08 | -26.13698 | 28.22940 | 5550 ft | 1 kts | 12° |
| 2026-04-15 13:08 | -26.13699 | 28.22948 | 5549 ft | 1 kts | 108° |
| 2026-04-15 13:09 | -26.13706 | 28.22951 | 5548 ft | 1 kts | 154° |
| 2026-04-15 13:09 | -26.13713 | 28.22955 | 5546 ft | 1 kts | 154° |
| 2026-04-15 13:09 | -26.13726 | 28.22971 | 5550 ft | 7 kts | 121° |
| 2026-04-15 13:09 | -26.13740 | 28.23048 | 5547 ft | 11 kts | 96° |
| 2026-04-15 13:10 | -26.13748 | 28.23134 | 5548 ft | 11 kts | 95° |
| 2026-04-15 13:10 | -26.13757 | 28.23226 | 5550 ft | 15 kts | 97° |
| 2026-04-15 13:10 | -26.13764 | 28.23341 | 5546 ft | 15 kts | 93° |
| 2026-04-15 13:10 | -26.13786 | 28.23450 | 5552 ft | 14 kts | 98° |
| 2026-04-15 13:11 | -26.13733 | 28.23514 | 5554 ft | 13 kts | 14° |
| 2026-04-15 13:11 | -26.13629 | 28.23546 | 5551 ft | 18 kts | 16° |
| 2026-04-15 13:11 | -26.13507 | 28.23584 | 5550 ft | 18 kts | 15° |
| 2026-04-15 13:11 | -26.13387 | 28.23622 | 5550 ft | 17 kts | 17° |
| 2026-04-15 13:12 | -26.13272 | 28.23657 | 5549 ft | 17 kts | 15° |
| 2026-04-15 13:12 | -26.13133 | 28.23700 | 5545 ft | 24 kts | 15° |
| 2026-04-15 13:12 | -26.12955 | 28.23756 | 5547 ft | 26 kts | 16° |
| 2026-04-15 13:12 | -26.12784 | 28.23808 | 5545 ft | 25 kts | 15° |
| 2026-04-15 13:13 | -26.12624 | 28.23858 | 5544 ft | 23 kts | 15° |
| 2026-04-15 13:13 | -26.12473 | 28.23904 | 5539 ft | 22 kts | 15° |
| 2026-04-15 13:13 | -26.12324 | 28.23949 | 5537 ft | 22 kts | 15° |
| 2026-04-15 13:13 | -26.12181 | 28.23993 | 5534 ft | 21 kts | 16° |
| 2026-04-15 13:14 | -26.12041 | 28.24037 | 5533 ft | 20 kts | 15° |
| 2026-04-15 13:14 | -26.11898 | 28.24082 | 5528 ft | 24 kts | 15° |
| 2026-04-15 13:14 | -26.11724 | 28.24137 | 5529 ft | 26 kts | 15° |
| 2026-04-15 13:14 | -26.11555 | 28.24189 | 5524 ft | 24 kts | 16° |
| 2026-04-15 13:15 | -26.11398 | 28.24238 | 5523 ft | 23 kts | 15° |
| 2026-04-15 13:15 | -26.11246 | 28.24283 | 5520 ft | 22 kts | 17° |
| 2026-04-15 13:15 | -26.11099 | 28.24330 | 5514 ft | 22 kts | 15° |
| 2026-04-15 13:15 | -26.10956 | 28.24373 | 5512 ft | 20 kts | 14° |
| 2026-04-15 13:16 | -26.10830 | 28.24403 | 5509 ft | 10 kts | 13° |
| 2026-04-15 13:16 | -26.10774 | 28.24433 | 5507 ft | 9 kts | 62° |
| 2026-04-15 13:16 | -26.10786 | 28.24506 | 5507 ft | 11 kts | 108° |
| 2026-04-15 13:16 | -26.10807 | 28.24586 | 5507 ft | 10 kts | 106° |
| 2026-04-15 13:17 | -26.10851 | 28.24610 | 5507 ft | 8 kts | 195° |
| 2026-04-15 13:17 | -26.10911 | 28.24591 | 5508 ft | 11 kts | 196° |
| 2026-04-15 13:17 | -26.11139 | 28.24520 | 5518 ft | 64 kts | 195° |
| 2026-04-15 13:17 | -26.11764 | 28.24326 | 5530 ft | 121 kts | 195° |
| 2026-04-15 13:18 | -26.12741 | 28.24022 | 5544 ft | 169 kts | 197° |
| 2026-04-15 13:18 | -26.13943 | 28.23660 | 5957 ft | 183 kts | 195° |
| 2026-04-15 13:18 | -26.15240 | 28.23301 | 6493 ft | 202 kts | 195° |
| 2026-04-15 13:18 | -26.16667 | 28.22914 | 6794 ft | 217 kts | 195° |
| 2026-04-15 13:19 | -26.18152 | 28.22493 | 7215 ft | 223 kts | 195° |
| 2026-04-15 13:19 | -26.19667 | 28.22062 | 7734 ft | 226 kts | 195° |
| 2026-04-15 13:19 | -26.21194 | 28.21616 | 8294 ft | 228 kts | 196° |
| 2026-04-15 13:19 | -26.22766 | 28.21140 | 8673 ft | 240 kts | 196° |
| 2026-04-15 13:20 | -26.24424 | 28.20777 | 9164 ft | 246 kts | 187° |
| 2026-04-15 13:20 | -26.26174 | 28.20562 | 9433 ft | 264 kts | 187° |
| 2026-04-15 13:20 | -26.28074 | 28.20324 | 9590 ft | 286 kts | 187° |
| 2026-04-15 13:20 | -26.30100 | 28.20069 | 10111 ft | 297 kts | 187° |
| 2026-04-15 13:21 | -26.32159 | 28.19810 | 10817 ft | 299 kts | 187° |
| 2026-04-15 13:21 | -26.34233 | 28.19548 | 11524 ft | 301 kts | 187° |
| 2026-04-15 13:21 | -26.36328 | 28.19283 | 12196 ft | 305 kts | 187° |
| 2026-04-15 13:21 | -26.38441 | 28.19014 | 12886 ft | 307 kts | 187° |
| 2026-04-15 13:22 | -26.40578 | 28.18743 | 13547 ft | 311 kts | 187° |
| 2026-04-15 13:22 | -26.42742 | 28.18468 | 14204 ft | 315 kts | 188° |
| 2026-04-15 13:22 | -26.44928 | 28.18189 | 14826 ft | 317 kts | 188° |
| 2026-04-15 13:22 | -26.47133 | 28.17909 | 15467 ft | 320 kts | 188° |
| 2026-04-15 13:23 | -26.49353 | 28.17626 | 16094 ft | 324 kts | 188° |
| 2026-04-15 13:23 | -26.51650 | 28.17331 | 16278 ft | 342 kts | 188° |
| 2026-04-15 13:23 | -26.54081 | 28.17019 | 16429 ft | 361 kts | 188° |
| 2026-04-15 13:23 | -26.56634 | 28.16691 | 16580 ft | 377 kts | 188° |
| 2026-04-15 13:24 | -26.59275 | 28.16354 | 16986 ft | 385 kts | 188° |
| 2026-04-15 13:24 | -26.61945 | 28.16014 | 17561 ft | 387 kts | 188° |
| 2026-04-15 13:24 | -26.64627 | 28.15673 | 18152 ft | 389 kts | 188° |
| 2026-04-15 13:24 | -26.67331 | 28.15328 | 18671 ft | 393 kts | 188° |
| 2026-04-15 13:25 | -26.70058 | 28.14980 | 19120 ft | 396 kts | 188° |
| 2026-04-15 13:25 | -26.72806 | 28.14629 | 19572 ft | 399 kts | 188° |
| 2026-04-15 13:25 | -26.75576 | 28.14274 | 20031 ft | 402 kts | 188° |
| 2026-04-15 13:25 | -26.78365 | 28.13917 | 20497 ft | 405 kts | 189° |
| 2026-04-15 13:26 | -26.81178 | 28.13556 | 20943 ft | 408 kts | 189° |
| 2026-04-15 13:26 | -26.84006 | 28.13194 | 21411 ft | 410 kts | 189° |
| 2026-04-15 13:26 | -26.86848 | 28.12829 | 21875 ft | 413 kts | 189° |
| 2026-04-15 13:26 | -26.89713 | 28.12462 | 22299 ft | 416 kts | 189° |
| 2026-04-15 13:27 | -26.92601 | 28.12090 | 22694 ft | 419 kts | 189° |
| 2026-04-15 13:27 | -26.95513 | 28.11716 | 23105 ft | 422 kts | 189° |
| 2026-04-15 13:27 | -26.98443 | 28.11339 | 23502 ft | 425 kts | 189° |
| 2026-04-15 13:27 | -27.01393 | 28.10960 | 23886 ft | 428 kts | 189° |
| 2026-04-15 13:28 | -27.04361 | 28.10578 | 24210 ft | 431 kts | 189° |
| 2026-04-15 13:28 | -27.07349 | 28.10193 | 24522 ft | 434 kts | 189° |
| 2026-04-15 13:28 | -27.10355 | 28.09806 | 24833 ft | 437 kts | 189° |
| 2026-04-15 13:28 | -27.13388 | 28.09415 | 25132 ft | 440 kts | 189° |
| 2026-04-15 13:29 | -27.16440 | 28.09022 | 25423 ft | 443 kts | 189° |
| 2026-04-15 13:29 | -27.19513 | 28.08625 | 25731 ft | 446 kts | 189° |
| 2026-04-15 13:29 | -27.22603 | 28.08226 | 26034 ft | 448 kts | 189° |
| 2026-04-15 13:29 | -27.25711 | 28.07825 | 26325 ft | 451 kts | 189° |
| 2026-04-15 13:30 | -27.28839 | 28.07420 | 26610 ft | 454 kts | 189° |
| 2026-04-15 13:30 | -27.31985 | 28.07014 | 26898 ft | 457 kts | 189° |
| 2026-04-15 13:30 | -27.35148 | 28.06604 | 27177 ft | 459 kts | 189° |
| 2026-04-15 13:30 | -27.38335 | 28.06192 | 27445 ft | 462 kts | 189° |
| 2026-04-15 13:31 | -27.41494 | 28.05782 | 27686 ft | 465 kts | 189° |
| 2026-04-15 13:31 | -27.44720 | 28.05364 | 27946 ft | 468 kts | 189° |
| 2026-04-15 13:31 | -27.48007 | 28.04908 | 28224 ft | 470 kts | 192° |
| 2026-04-15 13:31 | -27.51181 | 28.04081 | 28470 ft | 469 kts | 200° |
| 2026-04-15 13:32 | -27.54256 | 28.03000 | 28730 ft | 470 kts | 201° |
| 2026-04-15 13:32 | -27.57373 | 28.01845 | 28976 ft | 473 kts | 201° |
| 2026-04-15 13:32 | -27.60505 | 28.00679 | 29216 ft | 475 kts | 201° |
| 2026-04-15 13:32 | -27.63657 | 27.99524 | 29453 ft | 478 kts | 201° |
| 2026-04-15 13:33 | -27.66830 | 27.98382 | 29791 ft | 478 kts | 201° |
| 2026-04-15 13:33 | -27.69978 | 27.97265 | 30341 ft | 473 kts | 201° |
| 2026-04-15 13:33 | -27.73116 | 27.96159 | 30648 ft | 473 kts | 201° |
| 2026-04-15 13:33 | -27.76265 | 27.95050 | 30868 ft | 474 kts | 201° |
| 2026-04-15 13:34 | -27.79419 | 27.93938 | 31134 ft | 475 kts | 201° |
| 2026-04-15 13:34 | -27.82564 | 27.92828 | 31481 ft | 473 kts | 201° |
| 2026-04-15 13:34 | -27.85702 | 27.91720 | 31826 ft | 471 kts | 201° |
| 2026-04-15 13:34 | -27.88829 | 27.90613 | 32135 ft | 471 kts | 201° |
| 2026-04-15 13:35 | -27.91954 | 27.89506 | 32411 ft | 471 kts | 201° |
| 2026-04-15 13:35 | -27.95077 | 27.88399 | 32708 ft | 470 kts | 201° |
| 2026-04-15 13:35 | -27.98191 | 27.87295 | 33056 ft | 468 kts | 201° |
| 2026-04-15 13:35 | -28.01291 | 27.86188 | 33401 ft | 466 kts | 202° |
| 2026-04-15 13:36 | -28.04376 | 27.85059 | 33673 ft | 466 kts | 202° |
| 2026-04-15 13:36 | -28.07460 | 27.83918 | 33913 ft | 466 kts | 202° |
| 2026-04-15 13:36 | -28.10542 | 27.82773 | 34170 ft | 466 kts | 202° |
| 2026-04-15 13:36 | -28.13628 | 27.81627 | 34263 ft | 469 kts | 202° |
| 2026-04-15 13:37 | -28.18836 | 27.79697 | 34266 ft | 470 kts | 202° |
| 2026-04-15 13:37 | -28.24991 | 27.77423 | 34250 ft | 465 kts | 202° |
| 2026-04-15 13:38 | -28.31124 | 27.75155 | 34273 ft | 463 kts | 202° |
| 2026-04-15 13:38 | -28.37284 | 27.72870 | 34277 ft | 462 kts | 202° |
| 2026-04-15 13:39 | -28.43355 | 27.70616 | 34267 ft | 462 kts | 202° |
| 2026-04-15 13:39 | -28.49465 | 27.68346 | 34270 ft | 462 kts | 202° |
| 2026-04-15 13:40 | -28.55577 | 27.66074 | 34283 ft | 462 kts | 202° |
| 2026-04-15 13:40 | -28.61699 | 27.63798 | 34273 ft | 463 kts | 202° |
| 2026-04-15 13:41 | -28.67826 | 27.61517 | 34269 ft | 463 kts | 202° |
| 2026-04-15 13:41 | -28.73954 | 27.59232 | 34275 ft | 463 kts | 202° |
| 2026-04-15 13:42 | -28.80086 | 27.56942 | 34283 ft | 464 kts | 202° |
| 2026-04-15 13:42 | -28.86220 | 27.54649 | 34279 ft | 464 kts | 202° |
| 2026-04-15 13:43 | -28.92359 | 27.52351 | 34269 ft | 464 kts | 202° |
| 2026-04-15 13:43 | -28.98490 | 27.50054 | 34274 ft | 463 kts | 202° |
| 2026-04-15 13:44 | -29.04612 | 27.47757 | 34273 ft | 463 kts | 203° |
| 2026-04-15 13:44 | -29.10731 | 27.45458 | 34283 ft | 462 kts | 203° |
| 2026-04-15 13:45 | -29.16835 | 27.43161 | 34270 ft | 462 kts | 203° |
| 2026-04-15 13:47 | -29.41184 | 27.33972 | 34266 ft | 460 kts | 203° |
| 2026-04-15 13:47 | -29.47257 | 27.31673 | 34254 ft | 459 kts | 203° |
| 2026-04-15 13:48 | -29.53320 | 27.29374 | 34268 ft | 459 kts | 203° |
| 2026-04-15 13:48 | -29.59384 | 27.27073 | 34265 ft | 459 kts | 203° |
| 2026-04-15 13:49 | -29.65446 | 27.24769 | 34266 ft | 459 kts | 203° |
| 2026-04-15 13:49 | -29.71522 | 27.22456 | 34238 ft | 460 kts | 203° |
| 2026-04-15 13:50 | -29.77601 | 27.20140 | 34250 ft | 460 kts | 203° |
| 2026-04-15 13:50 | -29.83684 | 27.17820 | 34232 ft | 461 kts | 203° |
| 2026-04-15 13:51 | -29.89774 | 27.15493 | 34246 ft | 461 kts | 202° |
| 2026-04-15 13:51 | -29.95866 | 27.13164 | 34244 ft | 461 kts | 202° |
| 2026-04-15 13:52 | -30.01956 | 27.10832 | 34217 ft | 461 kts | 202° |
| 2026-04-15 13:52 | -30.08044 | 27.08498 | 34216 ft | 461 kts | 202° |
| 2026-04-15 13:53 | -30.14131 | 27.06161 | 34208 ft | 461 kts | 202° |
| 2026-04-15 13:53 | -30.20215 | 27.03822 | 34222 ft | 461 kts | 202° |
| 2026-04-15 13:54 | -30.26299 | 27.01479 | 34208 ft | 461 kts | 203° |
| 2026-04-15 13:54 | -30.32389 | 26.99132 | 34202 ft | 461 kts | 203° |
| 2026-04-15 13:55 | -30.38481 | 26.96780 | 34180 ft | 462 kts | 203° |
| 2026-04-15 13:55 | -30.44574 | 26.94426 | 34180 ft | 462 kts | 203° |
| 2026-04-15 13:56 | -30.50673 | 26.92065 | 34182 ft | 463 kts | 203° |
| 2026-04-15 13:56 | -30.56780 | 26.89699 | 34177 ft | 463 kts | 203° |
| 2026-04-15 13:57 | -30.62892 | 26.87327 | 34178 ft | 463 kts | 203° |
| 2026-04-15 13:57 | -30.69012 | 26.84949 | 34162 ft | 464 kts | 202° |
| 2026-04-15 13:58 | -30.75127 | 26.82570 | 34162 ft | 464 kts | 202° |
| 2026-04-15 13:58 | -30.81247 | 26.80184 | 34150 ft | 464 kts | 203° |
| 2026-04-15 13:59 | -30.87365 | 26.77794 | 34148 ft | 464 kts | 203° |
| 2026-04-15 13:59 | -30.93445 | 26.75414 | 34148 ft | 464 kts | 203° |
| 2026-04-15 14:00 | -30.99566 | 26.73015 | 34148 ft | 464 kts | 203° |
| 2026-04-15 14:00 | -31.05699 | 26.70609 | 34137 ft | 465 kts | 203° |
| 2026-04-15 14:01 | -31.14912 | 26.66988 | 34128 ft | 466 kts | 203° |
| 2026-04-15 14:02 | -31.21057 | 26.64568 | 34122 ft | 466 kts | 203° |
| 2026-04-15 14:02 | -31.27203 | 26.62145 | 34103 ft | 466 kts | 203° |
| 2026-04-15 14:03 | -31.33347 | 26.59719 | 34096 ft | 467 kts | 204° |
| 2026-04-15 14:03 | -31.39509 | 26.57283 | 34096 ft | 467 kts | 204° |
| 2026-04-15 14:04 | -31.45666 | 26.54845 | 34083 ft | 468 kts | 204° |
| 2026-04-15 14:04 | -31.51827 | 26.52402 | 34057 ft | 467 kts | 204° |
| 2026-04-15 14:05 | -31.57979 | 26.49961 | 34061 ft | 466 kts | 204° |
| 2026-04-15 14:05 | -31.64118 | 26.47523 | 34021 ft | 465 kts | 205° |
| 2026-04-15 14:06 | -31.70229 | 26.45094 | 34020 ft | 463 kts | 205° |
| 2026-04-15 14:06 | -31.76311 | 26.42671 | 34003 ft | 460 kts | 205° |
| 2026-04-15 14:07 | -31.82274 | 26.40298 | 33766 ft | 444 kts | 205° |
| 2026-04-15 14:07 | -31.85174 | 26.39141 | 33512 ft | 436 kts | 205° |
| 2026-04-15 14:07 | -31.88037 | 26.37995 | 33068 ft | 433 kts | 205° |
| 2026-04-15 14:07 | -31.90881 | 26.36854 | 32696 ft | 430 kts | 205° |
| 2026-04-15 14:08 | -31.93700 | 26.35725 | 32324 ft | 426 kts | 205° |
| 2026-04-15 14:08 | -31.96498 | 26.34605 | 31962 ft | 423 kts | 205° |
| 2026-04-15 14:08 | -31.99274 | 26.33495 | 31621 ft | 420 kts | 205° |
| 2026-04-15 14:08 | -32.02029 | 26.32396 | 31257 ft | 417 kts | 205° |
| 2026-04-15 14:09 | -32.04774 | 26.31299 | 30892 ft | 415 kts | 205° |
| 2026-04-15 14:09 | -32.07503 | 26.30207 | 30535 ft | 413 kts | 205° |
| 2026-04-15 14:09 | -32.10218 | 26.29120 | 30176 ft | 411 kts | 205° |
| 2026-04-15 14:09 | -32.12914 | 26.28040 | 29798 ft | 408 kts | 205° |
| 2026-04-15 14:10 | -32.15596 | 26.26964 | 29375 ft | 406 kts | 205° |
| 2026-04-15 14:10 | -32.18258 | 26.25896 | 28989 ft | 403 kts | 206° |
| 2026-04-15 14:10 | -32.20899 | 26.24836 | 28614 ft | 399 kts | 206° |
| 2026-04-15 14:10 | -32.23522 | 26.23782 | 28231 ft | 397 kts | 205° |
| 2026-04-15 14:11 | -32.26125 | 26.22736 | 27845 ft | 394 kts | 205° |
| 2026-04-15 14:11 | -32.28707 | 26.21697 | 27493 ft | 391 kts | 206° |
| 2026-04-15 14:11 | -32.31266 | 26.20665 | 27135 ft | 387 kts | 206° |
| 2026-04-15 14:11 | -32.33811 | 26.19639 | 26788 ft | 385 kts | 206° |
| 2026-04-15 14:12 | -32.36337 | 26.18621 | 26416 ft | 383 kts | 206° |
| 2026-04-15 14:12 | -32.38852 | 26.17607 | 26087 ft | 380 kts | 206° |
| 2026-04-15 14:12 | -32.41348 | 26.16600 | 25806 ft | 376 kts | 206° |
| 2026-04-15 14:12 | -32.43802 | 26.15610 | 25554 ft | 371 kts | 206° |
| 2026-04-15 14:13 | -32.46243 | 26.14621 | 25221 ft | 370 kts | 206° |
| 2026-04-15 14:13 | -32.48671 | 26.13635 | 24890 ft | 368 kts | 206° |
| 2026-04-15 14:13 | -32.51091 | 26.12652 | 24554 ft | 367 kts | 206° |
| 2026-04-15 14:13 | -32.53501 | 26.11673 | 24198 ft | 366 kts | 206° |
| 2026-04-15 14:14 | -32.55905 | 26.10696 | 23849 ft | 364 kts | 206° |
| 2026-04-15 14:14 | -32.58291 | 26.09727 | 23454 ft | 362 kts | 205° |
| 2026-04-15 14:14 | -32.60668 | 26.08759 | 23081 ft | 360 kts | 205° |
| 2026-04-15 14:14 | -32.62999 | 26.07811 | 22721 ft | 358 kts | 205° |
| 2026-04-15 14:15 | -32.65373 | 26.06845 | 22376 ft | 355 kts | 206° |
| 2026-04-15 14:15 | -32.67697 | 26.05898 | 22010 ft | 351 kts | 206° |
| 2026-04-15 14:15 | -32.69999 | 26.04960 | 21677 ft | 348 kts | 206° |
| 2026-04-15 14:15 | -32.72284 | 26.04028 | 21336 ft | 346 kts | 206° |
| 2026-04-15 14:16 | -32.74555 | 26.03100 | 21004 ft | 344 kts | 206° |
| 2026-04-15 14:16 | -32.76815 | 26.02176 | 20664 ft | 342 kts | 206° |
| 2026-04-15 14:16 | -32.79029 | 26.01271 | 20338 ft | 341 kts | 206° |
| 2026-04-15 14:16 | -32.81265 | 26.00358 | 20001 ft | 339 kts | 206° |
| 2026-04-15 14:17 | -32.83492 | 25.99447 | 19669 ft | 337 kts | 205° |
| 2026-04-15 14:17 | -32.85704 | 25.98545 | 19373 ft | 335 kts | 205° |
| 2026-04-15 14:17 | -32.87912 | 25.97645 | 19061 ft | 335 kts | 205° |
| 2026-04-15 14:17 | -32.90115 | 25.96746 | 18759 ft | 335 kts | 205° |
| 2026-04-15 14:18 | -32.92328 | 25.95841 | 18452 ft | 337 kts | 205° |
| 2026-04-15 14:18 | -32.94554 | 25.94931 | 18059 ft | 339 kts | 205° |
| 2026-04-15 14:18 | -32.96782 | 25.94020 | 17717 ft | 338 kts | 205° |
| 2026-04-15 14:18 | -32.98999 | 25.93115 | 17364 ft | 336 kts | 205° |
| 2026-04-15 14:19 | -33.01205 | 25.92214 | 17064 ft | 333 kts | 205° |
| 2026-04-15 14:19 | -33.03375 | 25.91327 | 16805 ft | 328 kts | 205° |
| 2026-04-15 14:19 | -33.05528 | 25.90446 | 16490 ft | 326 kts | 205° |
| 2026-04-15 14:19 | -33.07665 | 25.89569 | 16166 ft | 324 kts | 205° |
| 2026-04-15 14:20 | -33.09076 | 25.88990 | 15943 ft | 323 kts | 205° |
| 2026-04-15 14:20 | -33.11906 | 25.87828 | 15523 ft | 320 kts | 205° |
| 2026-04-15 14:20 | -33.14005 | 25.86967 | 15209 ft | 318 kts | 204° |
| 2026-04-15 14:20 | -33.15390 | 25.86398 | 14993 ft | 317 kts | 204° |
| 2026-04-15 14:21 | -33.17479 | 25.85562 | 14673 ft | 317 kts | 200° |
| 2026-04-15 14:21 | -33.19688 | 25.85234 | 14363 ft | 324 kts | 183° |
| 2026-04-15 14:21 | -33.21938 | 25.85385 | 14076 ft | 324 kts | 180° |
| 2026-04-15 14:21 | -33.24939 | 25.85669 | 13599 ft | 321 kts | 180° |
| 2026-04-15 14:22 | -33.26407 | 25.85813 | 13371 ft | 319 kts | 180° |
| 2026-04-15 14:22 | -33.28617 | 25.86025 | 13037 ft | 318 kts | 180° |
| 2026-04-15 14:22 | -33.30818 | 25.86228 | 12705 ft | 316 kts | 181° |
| 2026-04-15 14:22 | -33.33007 | 25.86425 | 12375 ft | 315 kts | 181° |
| 2026-04-15 14:23 | -33.35191 | 25.86616 | 12042 ft | 314 kts | 181° |
| 2026-04-15 14:23 | -33.37366 | 25.86803 | 11725 ft | 313 kts | 181° |
| 2026-04-15 14:23 | -33.39541 | 25.86989 | 11390 ft | 313 kts | 182° |
| 2026-04-15 14:23 | -33.41713 | 25.87174 | 11057 ft | 313 kts | 182° |
| 2026-04-15 14:24 | -33.43885 | 25.87357 | 10738 ft | 313 kts | 181° |
| 2026-04-15 14:24 | -33.46059 | 25.87542 | 10411 ft | 313 kts | 182° |
| 2026-04-15 14:24 | -33.48208 | 25.87726 | 10260 ft | 306 kts | 182° |
| 2026-04-15 14:24 | -33.50312 | 25.87907 | 10101 ft | 301 kts | 182° |
| 2026-04-15 14:25 | -33.52421 | 25.88084 | 9792 ft | 306 kts | 182° |
| 2026-04-15 14:25 | -33.54552 | 25.88262 | 9484 ft | 308 kts | 181° |
| 2026-04-15 14:25 | -33.56684 | 25.88442 | 9168 ft | 307 kts | 181° |
| 2026-04-15 14:25 | -33.58805 | 25.88623 | 8869 ft | 304 kts | 181° |
| 2026-04-15 14:26 | -33.60909 | 25.88802 | 8556 ft | 300 kts | 180° |
| 2026-04-15 14:26 | -33.62977 | 25.88978 | 8273 ft | 296 kts | 180° |
| 2026-04-15 14:26 | -33.65010 | 25.89152 | 7985 ft | 290 kts | 180° |
| 2026-04-15 14:26 | -33.66989 | 25.89322 | 7747 ft | 279 kts | 180° |
| 2026-04-15 14:27 | -33.68891 | 25.89485 | 7453 ft | 270 kts | 180° |
| 2026-04-15 14:27 | -33.70723 | 25.89640 | 7154 ft | 266 kts | 179° |
| 2026-04-15 14:27 | -33.72555 | 25.89795 | 6867 ft | 262 kts | 179° |
| 2026-04-15 14:27 | -33.74361 | 25.89948 | 6611 ft | 258 kts | 179° |
| 2026-04-15 14:28 | -33.76170 | 25.90102 | 6333 ft | 257 kts | 179° |
| 2026-04-15 14:28 | -33.77924 | 25.90251 | 6080 ft | 256 kts | 179° |
| 2026-04-15 14:28 | -33.79697 | 25.90402 | 5822 ft | 254 kts | 179° |
| 2026-04-15 14:28 | -33.81444 | 25.90549 | 5557 ft | 249 kts | 180° |
| 2026-04-15 14:29 | -33.83080 | 25.90208 | 5263 ft | 235 kts | 212° |
| 2026-04-15 14:29 | -33.84176 | 25.88834 | 4962 ft | 226 kts | 239° |
| 2026-04-15 14:29 | -33.85068 | 25.87305 | 4594 ft | 221 kts | 231° |
| 2026-04-15 14:29 | -33.85989 | 25.85855 | 4268 ft | 214 kts | 233° |
| 2026-04-15 14:30 | -33.86810 | 25.84393 | 4024 ft | 209 kts | 236° |
| 2026-04-15 14:30 | -33.87578 | 25.82930 | 3829 ft | 204 kts | 237° |
| 2026-04-15 14:30 | -33.88306 | 25.81515 | 3693 ft | 193 kts | 237° |
| 2026-04-15 14:30 | -33.88991 | 25.80181 | 3591 ft | 179 kts | 236° |
| 2026-04-15 14:31 | -33.89640 | 25.78919 | 3455 ft | 179 kts | 236° |
| 2026-04-15 14:31 | -33.90293 | 25.77650 | 3225 ft | 178 kts | 236° |
| 2026-04-15 14:31 | -33.90937 | 25.76397 | 3001 ft | 174 kts | 236° |
| 2026-04-15 14:31 | -33.91567 | 25.75172 | 2769 ft | 171 kts | 236° |
| 2026-04-15 14:32 | -33.92196 | 25.73952 | 2544 ft | 171 kts | 236° |
| 2026-04-15 14:32 | -33.92811 | 25.72755 | 2336 ft | 161 kts | 236° |
| 2026-04-15 14:32 | -33.93371 | 25.71668 | 2109 ft | 145 kts | 237° |
| 2026-04-15 14:32 | -33.93883 | 25.70673 | 1958 ft | 133 kts | 237° |
| 2026-04-15 14:33 | -33.94362 | 25.69744 | 1776 ft | 129 kts | 237° |
| 2026-04-15 14:33 | -33.94830 | 25.68835 | 1597 ft | 127 kts | 236° |
| 2026-04-15 14:33 | -33.95297 | 25.67930 | 1418 ft | 128 kts | 237° |
| 2026-04-15 14:33 | -33.95772 | 25.67008 | 1252 ft | 131 kts | 237° |
| 2026-04-15 14:34 | -33.96252 | 25.66076 | 1069 ft | 130 kts | 238° |
| 2026-04-15 14:34 | -33.96725 | 25.65164 | 917 ft | 128 kts | 238° |
| 2026-04-15 14:34 | -33.97194 | 25.64240 | 747 ft | 128 kts | 237° |
| 2026-04-15 14:34 | -33.97665 | 25.63330 | 556 ft | 127 kts | 237° |
| 2026-04-15 14:35 | -33.98131 | 25.62424 | 386 ft | 126 kts | 238° |
| 2026-04-15 14:35 | -33.98588 | 25.61533 | 244 ft | 121 kts | 237° |
| 2026-04-15 14:35 | -33.98960 | 25.60813 | 234 ft | 73 kts | 238° |
| 2026-04-15 14:35 | -33.99162 | 25.60425 | 232 ft | 48 kts | 238° |
| 2026-04-15 14:36 | -33.99296 | 25.60166 | 233 ft | 23 kts | 238° |
| 2026-04-15 14:36 | -33.99352 | 25.60058 | 234 ft | 11 kts | 240° |
| 2026-04-15 14:36 | -33.99334 | 25.59981 | 234 ft | 11 kts | 325° |
| 2026-04-15 14:36 | -33.99271 | 25.59936 | 235 ft | 10 kts | 338° |
| 2026-04-15 14:37 | -33.99206 | 25.59943 | 237 ft | 10 kts | 45° |
| 2026-04-15 14:37 | -33.99158 | 25.60024 | 237 ft | 13 kts | 58° |
| 2026-04-15 14:37 | -33.99112 | 25.60111 | 235 ft | 12 kts | 56° |
| 2026-04-15 14:37 | -33.99066 | 25.60195 | 234 ft | 12 kts | 57° |
| 2026-04-15 14:38 | -33.99021 | 25.60277 | 235 ft | 12 kts | 57° |
| 2026-04-15 14:38 | -33.98978 | 25.60357 | 236 ft | 11 kts | 57° |
| 2026-04-15 14:38 | -33.98935 | 25.60437 | 234 ft | 12 kts | 57° |
| 2026-04-15 14:38 | -33.98886 | 25.60528 | 236 ft | 14 kts | 57° |
| 2026-04-15 14:39 | -33.98828 | 25.60634 | 237 ft | 15 kts | 57° |
| 2026-04-15 14:39 | -33.98769 | 25.60741 | 237 ft | 15 kts | 56° |
| 2026-04-15 14:39 | -33.98715 | 25.60841 | 238 ft | 14 kts | 57° |
| 2026-04-15 14:39 | -33.98661 | 25.60943 | 237 ft | 13 kts | 58° |
| 2026-04-15 14:40 | -33.98613 | 25.61037 | 237 ft | 12 kts | 58° |
| 2026-04-15 14:40 | -33.98569 | 25.61122 | 234 ft | 12 kts | 58° |
| 2026-04-15 14:40 | -33.98528 | 25.61203 | 236 ft | 9 kts | 58° |
| 2026-04-15 14:40 | -33.98508 | 25.61241 | 236 ft | 3 kts | 58° |
| 2026-04-15 14:41 | -33.98487 | 25.61247 | 234 ft | 3 kts | 345° |
| 2026-04-15 14:41 | -33.98468 | 25.61235 | 234 ft | 0 kts | 326° |
| 2026-04-15 14:41 | -33.98460 | 25.61229 | 237 ft | 1 kts | 329° |
| 2026-04-15 14:41 | -33.98450 | 25.61222 | 235 ft | 1 kts | 328° |
| 2026-04-15 14:42 | -33.98446 | 25.61219 | 236 ft | 0 kts | 328° |